Time;durP1;ratioP1;P1;durP2;ratioP2;P2;SDS_P1;SDS_P2;PMS_P1;PMS_P2;Temp;Humidity;BMP_temperature;BMP_pressure;BME280_temperature;BME280_humidity;BME280_pressure;Samples;Min_cycle;Max_cycle;Signal;HPM_P1;HPM_P2
2021/07/15 00:01:46;;;;;;;53.40;19.15;;;;;;;16.86;92.47;101544.25;6097275;23;20038;-89
2021/07/15 00:15:24;;;;;;;55.25;19.60;;;;;;;16.80;92.88;101536.25;6082370;23;20018;-86
2021/07/15 00:18:30;;;;;;;55.35;22.08;;;;;;;16.77;93.00;101549.53;6120780;23;20018;-85
2021/07/15 00:21:05;;;;;;;54.55;20.08;;;;;;;16.79;92.82;101558.41;6125603;23;20049;-86
2021/07/15 00:24:54;;;;;;;;;;;;;;;;;;;;;
2021/07/15 00:27:55;;;;;;;47.60;20.27;;;;;;;16.78;92.87;101564.59;6127923;23;20441;-81
2021/07/15 00:31:23;;;;;;;45.92;20.63;;;;;;;16.78;93.07;101556.63;6129269;23;20042;-84
2021/07/15 00:34:30;;;;;;;;;;;;;;;;;;;;;
2021/07/15 00:37:06;;;;;;;58.58;21.05;;;;;;;16.80;92.91;101557.50;5983234;23;20071;-86
2021/07/15 00:43:02;;;;;;;50.17;19.25;;;;;;;16.78;92.98;101556.63;6102745;23;20449;-86
2021/07/15 00:45:45;;;;;;;49.83;18.92;;;;;;;16.80;92.86;101564.59;6128276;23;20010;-80
2021/07/15 00:48:53;;;;;;;48.88;20.33;;;;;;;16.74;92.74;101565.47;6129582;23;20381;-83
2021/07/15 00:51:39;;;;;;;51.75;19.90;;;;;;;16.75;92.84;101556.59;6127058;23;20009;-89
2021/07/15 00:54:25;;;;;;;40.90;19.23;;;;;;;16.76;92.71;101553.06;6128543;23;20020;-81
2021/07/15 00:57:16;;;;;;;50.83;18.85;;;;;;;16.77;92.88;101556.63;6129220;23;20002;-81
2021/07/15 01:00:24;;;;;;;46.30;19.63;;;;;;;16.78;92.42;101555.72;6130030;23;20014;-89
2021/07/15 01:03:17;;;;;;;53.47;19.80;;;;;;;16.76;93.04;101544.22;6125716;23;20013;-86
2021/07/15 01:06:10;;;;;;;46.40;18.33;;;;;;;16.80;92.64;101548.66;6129586;23;20017;-83
2021/07/15 01:09:33;;;;;;;49.22;18.80;;;;;;;16.79;92.83;101547.78;6130566;23;20097;-85
2021/07/15 01:12:29;;;;;;;52.47;18.88;;;;;;;16.79;92.76;101557.50;5984572;24;20092;-87
2021/07/15 01:15:22;;;;;;;55.17;20.13;;;;;;;16.75;92.87;101561.91;6130007;23;20010;-81
2021/07/15 01:18:43;;;;;;;48.10;16.77;;;;;;;16.75;92.34;101567.22;6127926;23;20025;-80
2021/07/15 01:21:44;;;;;;;45.38;18.23;;;;;;;16.73;92.78;101569.00;6102314;23;20006;-84
2021/07/15 01:24:25;;;;;;;44.70;19.15;;;;;;;16.71;92.79;101575.19;6128391;23;20330;-88
2021/07/15 01:27:21;;;;;;;55.10;19.33;;;;;;;16.69;92.98;101562.78;6126865;23;20022;-82
2021/07/15 01:30:03;;;;;;;55.20;18.98;;;;;;;16.70;93.02;101563.69;6127289;23;20010;-79
2021/07/15 01:32:36;;;;;;;39.58;18.70;;;;;;;16.71;92.82;101565.44;6101305;23;20033;-83
2021/07/15 01:35:42;;;;;;;;;;;;;;;16.75;92.66;101561.03;6127456;23;20410;-86
2021/07/15 01:38:47;;;;;;;53.22;17.80;;;;;;;16.72;92.86;101580.50;6126870;23;19909;-78
2021/07/15 01:41:48;;;;;;;38.80;17.63;;;;;;;16.69;93.11;101581.38;6127090;23;20006;-81
2021/07/15 01:44:40;;;;;;;49.05;17.67;;;;;;;16.70;92.87;101574.31;6127484;23;20346;-84
2021/07/15 01:47:54;;;;;;;51.42;18.75;;;;;;;16.70;92.90;101579.66;6084578;23;20017;-88
2021/07/15 01:50:40;;;;;;;49.85;19.65;;;;;;;16.70;92.81;101590.28;6126898;23;20334;-86
2021/07/15 01:54:13;;;;;;;49.00;18.98;;;;;;;16.73;92.80;101578.78;6126750;23;20013;-80
2021/07/15 01:57:11;;;;;;;39.53;17.83;;;;;;;16.68;93.03;101570.75;6122126;23;20017;-84
2021/07/15 01:59:57;;;;;;;44.55;17.50;;;;;;;16.67;92.58;101563.66;6126361;23;20017;-82
2021/07/15 02:03:04;;;;;;;44.08;16.05;;;;;;;16.66;92.99;101561.91;6127724;23;20329;-80
2021/07/15 02:06:03;;;;;;;;;;;;;;;;;;;;;
2021/07/15 02:09:15;;;;;;;43.53;18.13;;;;;;;16.64;93.09;101558.34;6096877;23;20077;-86
2021/07/15 02:16:15;;;;;;;;;;;;;;;;;;;;;
2021/07/15 02:19:16;;;;;;;52.30;18.45;;;;;;;16.58;93.33;101545.06;6124256;23;20314;-81
2021/07/15 02:22:06;;;;;;;45.63;18.52;;;;;;;16.52;93.51;101549.47;6126749;23;20021;-89
2021/07/15 02:25:27;;;;;;;45.65;18.45;;;;;;;16.49;93.64;101549.47;6114353;23;20377;-88
2021/07/15 02:32:12;;;;;;;44.22;17.23;;;;;;;16.47;93.63;101539.72;6071179;23;20010;-85
2021/07/15 02:35:26;;;;;;;42.40;18.60;;;;;;;16.46;93.75;101541.47;6125578;23;20448;-82
2021/07/15 02:38:16;;;;;;;50.88;20.13;;;;;;;16.46;93.70;101536.16;6126253;23;20448;-83
2021/07/15 02:41:00;;;;;;;49.58;19.27;;;;;;;16.44;93.78;101535.28;6109682;23;20044;-83
2021/07/15 02:43:51;;;;;;;45.22;19.00;;;;;;;16.43;93.96;101533.50;6127165;23;20006;-80
2021/07/15 02:49:22;;;;;;;45.88;18.50;;;;;;;16.46;93.59;101533.50;6127353;23;20010;-84
2021/07/15 02:51:47;;;;;;;43.58;17.90;;;;;;;16.47;93.62;101535.28;6127106;23;20013;-86
2021/07/15 02:54:37;;;;;;;51.45;19.92;;;;;;;16.46;93.58;101537.94;6125308;23;20052;-82
2021/07/15 02:57:35;;;;;;;50.22;18.50;;;;;;;16.46;93.48;101530.84;6108726;23;20010;-89
2021/07/15 03:00:21;;;;;;;45.28;19.67;;;;;;;16.42;93.56;101537.03;6048082;23;20076;-85
2021/07/15 03:03:20;;;;;;;56.20;18.85;;;;;;;16.44;93.52;101524.66;6124980;23;20021;-83
2021/07/15 03:06:42;;;;;;;59.30;20.55;;;;;;;16.44;93.74;101524.66;6126638;23;20029;-83
2021/07/15 03:09:31;;;;;;;56.72;19.20;;;;;;;16.43;93.51;101536.16;6126096;23;20024;-80
2021/07/15 03:12:36;;;;;;;56.10;18.80;;;;;;;16.44;93.70;101534.38;6125669;23;20010;-87
2021/07/15 03:15:03;;;;;;;48.97;16.80;;;;;;;16.41;93.49;101545.88;5980115;24;20015;-81
2021/07/15 03:17:34;;;;;;;43.22;17.08;;;;;;;16.41;93.75;101540.56;5955733;24;20028;-83
2021/07/15 03:20:22;;;;;;;46.17;18.00;;;;;;;16.38;93.26;101537.91;6121418;23;20018;-83
2021/07/15 03:22:52;;;;;;;52.25;18.95;;;;;;;16.43;93.01;101538.81;6124916;23;20018;-88
2021/07/15 03:26:01;;;;;;;46.28;17.52;;;;;;;16.39;93.19;101531.72;6124782;23;20441;-90
2021/07/15 03:28:31;;;;;;;42.60;16.98;;;;;;;16.42;93.09;101536.16;6126011;23;20017;-84
2021/07/15 03:31:20;;;;;;;42.45;15.73;;;;;;;16.42;93.05;101531.72;6127062;23;20017;-79
2021/07/15 03:33:46;;;;;;;38.38;15.75;;;;;;;16.44;92.81;101537.03;6125618;23;20025;-83
2021/07/15 03:36:15;;;;;;;46.63;17.75;;;;;;;16.47;93.10;101534.41;6126721;23;20005;-88
2021/07/15 03:39:04;;;;;;;34.90;16.08;;;;;;;16.46;92.83;101544.13;6126267;23;20009;-80
2021/07/15 03:41:30;;;;;;;53.40;17.98;;;;;;;16.45;92.64;101547.66;6125839;23;20315;-87
2021/07/15 03:44:16;;;;;;;37.92;16.48;;;;;;;16.47;92.85;101551.22;6126310;23;20068;-83
2021/07/15 03:47:01;;;;;;;41.30;16.05;;;;;;;16.50;92.58;101556.53;6126805;23;20083;-80
2021/07/15 03:49:29;;;;;;;56.00;17.52;;;;;;;16.48;92.27;101547.69;6126697;23;20010;-86
2021/07/15 03:52:18;;;;;;;52.90;18.65;;;;;;;16.48;92.28;101547.69;6129366;23;20002;-83
2021/07/15 03:55:05;;;;;;;48.72;16.77;;;;;;;16.47;92.32;101555.66;6107752;23;20006;-86
2021/07/15 03:57:51;;;;;;;41.65;16.92;;;;;;;16.49;92.17;101551.22;6128310;23;20018;-85
2021/07/15 04:00:26;;;;;;;42.70;16.77;;;;;;;16.56;92.07;101557.44;6128905;23;20013;-82
2021/07/15 04:03:39;;;;;;;44.45;16.45;;;;;;;16.55;91.79;101542.38;6129516;23;20009;-83
2021/07/15 04:06:08;;;;;;;45.47;15.80;;;;;;;16.57;91.47;101551.25;6130169;23;20018;-82
2021/07/15 04:09:13;;;;;;;47.65;16.58;;;;;;;16.58;90.98;101559.22;6129445;23;20010;-85
2021/07/15 04:12:00;;;;;;;50.08;16.17;;;;;;;16.63;90.97;101552.16;6126587;23;20018;-82
2021/07/15 04:14:51;;;;;;;50.20;17.20;;;;;;;16.68;90.89;101560.13;6128901;23;20018;-86
2021/07/15 04:17:56;;;;;;;53.40;17.50;;;;;;;16.70;90.27;101563.69;6128440;23;20022;-84
2021/07/15 04:20:43;;;;;;;39.75;16.00;;;;;;;16.74;90.23;101565.47;6126037;23;20010;-84
2021/07/15 04:23:52;;;;;;;46.42;17.10;;;;;;;16.74;89.88;101565.47;6127304;23;20440;-79
2021/07/15 04:26:18;;;;;;;43.45;15.15;;;;;;;16.75;90.06;101569.88;6126668;23;20025;-84
2021/07/15 04:29:13;;;;;;;41.83;17.10;;;;;;;16.76;89.84;101576.09;6128766;23;20056;-84
2021/07/15 04:31:50;;;;;;;32.00;15.38;;;;;;;16.75;90.07;101583.19;6128409;23;20088;-84
2021/07/15 04:34:36;;;;;;;36.90;16.45;;;;;;;16.77;89.89;101576.09;6129166;23;20012;-84
2021/07/15 04:37:22;;;;;;;37.65;15.60;;;;;;;16.72;90.19;101577.84;6129058;23;20002;-82
2021/07/15 04:40:55;;;;;;;47.95;15.93;;;;;;;16.74;89.72;101576.09;6127815;23;20085;-84
2021/07/15 04:43:59;;;;;;;37.50;14.32;;;;;;;16.67;90.22;101584.94;6126901;23;20333;-86
2021/07/15 04:46:26;;;;;;;35.00;16.35;;;;;;;16.73;89.66;101584.09;6128190;23;20017;-80
2021/07/15 04:48:52;;;;;;;34.35;16.48;;;;;;;16.73;89.83;101592.06;6129228;23;20006;-81
2021/07/15 04:51:23;;;;;;;30.75;13.98;;;;;;;16.78;89.75;101603.56;6128979;23;20006;-82
2021/07/15 04:54:09;;;;;;;41.05;15.48;;;;;;;16.77;89.88;101601.81;6128423;23;20084;-83
2021/07/15 04:56:35;;;;;;;44.85;14.95;;;;;;;16.76;89.83;101598.25;6127542;23;19998;-86
2021/07/15 04:59:03;;;;;;;37.78;15.32;;;;;;;16.76;89.54;101600.91;6101846;23;20014;-86
2021/07/15 05:01:48;;;;;;;44.45;14.30;;;;;;;16.80;89.40;101600.03;6128623;23;20315;-83
2021/07/15 05:04:13;;;;;;;31.65;13.48;;;;;;;16.84;89.00;101601.81;6128894;23;20110;-78
2021/07/15 05:06:39;;;;;;;43.88;14.50;;;;;;;16.88;88.79;101597.41;6128318;23;20346;-84
2021/07/15 05:09:05;;;;;;;39.10;12.45;;;;;;;16.83;88.17;101605.38;6129454;23;20014;-82
2021/07/15 05:11:36;;;;;;;43.70;13.23;;;;;;;16.89;88.46;101592.97;6127484;23;20018;-84
2021/07/15 05:14:22;;;;;;;33.75;13.05;;;;;;;16.85;88.57;101592.97;6129160;23;20079;-79
2021/07/15 05:16:47;;;;;;;40.13;11.85;;;;;;;16.92;88.04;101601.00;6127308;23;20006;-87
2021/07/15 05:19:13;;;;;;;33.63;11.40;;;;;;;16.93;87.85;101601.00;6128847;23;20105;-85
2021/07/15 05:21:41;;;;;;;24.67;11.50;;;;;;;16.93;87.64;101608.06;6127690;23;20002;-79
2021/07/15 05:24:26;;;;;;;28.77;11.82;;;;;;;16.96;87.46;101606.31;6128355;23;20009;-87
2021/07/15 05:26:52;;;;;;;32.25;12.35;;;;;;;16.98;87.40;101606.31;6126834;23;20010;-88
2021/07/15 05:29:17;;;;;;;34.90;11.90;;;;;;;16.94;87.62;101616.06;6128368;23;20483;-81
2021/07/15 05:32:03;;;;;;;37.55;11.13;;;;;;;16.92;86.99;101611.63;6127169;23;20006;-88
2021/07/15 05:34:31;;;;;;;33.67;11.57;;;;;;;16.96;86.70;101613.41;6126839;23;20005;-85
2021/07/15 05:36:57;;;;;;;33.28;11.07;;;;;;;16.99;86.62;101606.31;6127843;23;20009;-81
2021/07/15 05:39:22;;;;;;;29.05;10.82;;;;;;;16.99;86.38;101610.75;6128408;23;20002;-77
2021/07/15 05:42:19;;;;;;;26.98;11.20;;;;;;;17.02;86.31;101608.09;6127790;23;20009;-85
2021/07/15 05:44:45;;;;;;;36.13;11.00;;;;;;;17.03;86.54;101605.44;6127546;23;20029;-82
2021/07/15 05:47:14;;;;;;;27.67;10.50;;;;;;;17.03;86.67;101610.75;6128179;23;20082;-83
2021/07/15 05:49:44;;;;;;;37.55;10.68;;;;;;;16.96;86.66;101608.09;6101063;23;20006;-80
2021/07/15 05:52:11;;;;;;;33.63;11.05;;;;;;;16.96;86.27;101608.97;6129202;23;20076;-86
2021/07/15 05:54:37;;;;;;;30.85;10.63;;;;;;;16.97;86.21;101610.75;6127866;23;20086;-87
2021/07/15 05:57:26;;;;;;;32.17;10.50;;;;;;;16.91;86.47;101616.03;6128998;23;19997;-81
2021/07/15 05:59:51;;;;;;;32.05;10.82;;;;;;;16.85;86.85;101619.53;6129660;23;20014;-85
2021/07/15 06:02:17;;;;;;;31.85;11.48;;;;;;;16.90;86.44;101630.25;6128566;23;20430;-85
2021/07/15 06:04:43;;;;;;;28.10;11.20;;;;;;;16.93;86.44;101621.34;6102959;23;20010;-87
2021/07/15 06:07:09;;;;;;;34.45;9.95;;;;;;;16.98;86.05;101628.50;6129897;23;20421;-82
2021/07/15 06:09:35;;;;;;;28.15;10.38;;;;;;;17.01;86.07;101627.59;6129924;23;20052;-80
2021/07/15 06:12:00;;;;;;;28.08;10.75;;;;;;;17.03;85.49;101625.81;6128640;23;20329;-83
2021/07/15 06:14:26;;;;;;;27.52;10.95;;;;;;;17.01;85.21;101625.81;6128416;23;20433;-87
2021/07/15 06:16:51;;;;;;;32.92;11.60;;;;;;;17.05;85.84;101624.06;6104766;23;19998;-84
2021/07/15 06:19:37;;;;;;;36.10;10.43;;;;;;;17.08;86.14;101629.41;6127494;23;20448;-80
2021/07/15 06:22:03;;;;;;;37.53;10.43;;;;;;;17.24;85.61;101624.09;6128571;23;20020;-86
2021/07/15 06:24:51;;;;;;;30.95;10.15;;;;;;;17.36;84.55;101619.69;6102369;23;20389;-86
2021/07/15 06:27:16;;;;;;;26.35;10.25;;;;;;;17.45;84.38;101624.13;6127516;23;20329;-81
2021/07/15 06:29:42;;;;;;;22.35;9.75;;;;;;;17.46;83.53;101628.56;6127964;23;20077;-79
2021/07/15 06:32:07;;;;;;;25.10;10.10;;;;;;;17.58;83.11;101637.41;6128446;23;20037;-81
2021/07/15 06:34:32;;;;;;;22.88;10.20;;;;;;;17.42;83.01;101640.09;6127303;23;20002;-84
2021/07/15 06:36:58;;;;;;;27.40;10.00;;;;;;;17.41;83.54;101648.94;6126899;23;19998;-83
2021/07/15 06:39:23;;;;;;;27.92;10.15;;;;;;;17.40;83.69;101641.84;6127628;23;20002;-85
2021/07/15 06:41:51;;;;;;;23.77;9.40;;;;;;;17.34;83.52;101640.06;6125610;23;20404;-83
2021/07/15 06:44:17;;;;;;;28.35;9.95;;;;;;;17.32;83.65;101643.59;6126698;23;20374;-83
2021/07/15 06:47:04;;;;;;;25.45;9.48;;;;;;;17.33;83.25;101654.25;6125143;23;20002;-83
2021/07/15 06:49:52;;;;;;;31.30;9.40;;;;;;;17.33;83.48;101651.59;6125631;23;20385;-76
2021/07/15 06:52:17;;;;;;;22.35;9.65;;;;;;;17.24;83.78;101654.25;6126512;23;20485;-81
2021/07/15 06:54:43;;;;;;;28.05;9.40;;;;;;;17.25;83.70;101655.13;6125721;23;20010;-86
2021/07/15 06:57:11;;;;;;;21.80;9.73;;;;;;;17.25;83.61;101653.34;6128066;23;20008;-80
2021/07/15 06:59:36;;;;;;;35.72;10.32;;;;;;;17.18;84.16;101652.44;6102172;23;20076;-81
2021/07/15 07:02:02;;;;;;;24.75;9.93;;;;;;;17.18;84.39;101655.09;6130393;23;20370;-80
2021/07/15 07:04:27;;;;;;;23.65;9.68;;;;;;;17.27;84.25;101669.31;6126765;23;20010;-87
2021/07/15 07:06:53;;;;;;;28.77;9.70;;;;;;;17.26;84.28;101676.41;6126207;23;20005;-79
2021/07/15 07:09:18;;;;;;;27.52;10.63;;;;;;;17.19;84.74;101680.81;6127092;23;20053;-86
2021/07/15 07:11:45;;;;;;;27.85;10.57;;;;;;;17.20;84.72;101676.41;6127259;23;20014;-84
2021/07/15 07:14:30;;;;;;;31.80;10.30;;;;;;;17.18;84.10;101676.38;6119710;23;20430;-82
2021/07/15 07:16:56;;;;;;;25.85;9.90;;;;;;;17.20;84.41;101684.38;6125208;23;20017;-81
2021/07/15 07:20:01;;;;;;;24.58;9.35;;;;;;;17.19;84.45;101680.81;6125948;23;20018;-83
2021/07/15 07:22:27;;;;;;;23.63;11.45;;;;;;;17.23;84.18;101684.38;6125768;23;20018;-81
2021/07/15 07:24:52;;;;;;;23.70;9.38;;;;;;;17.22;83.60;101689.72;6126894;23;20489;-82
2021/07/15 07:27:20;;;;;;;23.60;9.60;;;;;;;17.31;83.76;101695.94;6102447;23;20402;-79
2021/07/15 07:29:46;;;;;;;24.70;9.10;;;;;;;17.36;83.34;101693.28;6129079;23;20010;-87
2021/07/15 07:32:14;;;;;;;20.40;9.05;;;;;;;17.46;82.51;101692.41;6128607;23;20032;-81
2021/07/15 07:34:40;;;;;;;26.35;9.05;;;;;;;17.52;82.39;101699.50;6125269;23;20012;-84
2021/07/15 07:37:05;;;;;;;24.77;8.85;;;;;;;17.59;82.24;101695.09;6130181;23;20018;-81
2021/07/15 07:39:31;;;;;;;22.13;9.52;;;;;;;17.66;82.10;101694.19;6130315;23;20476;-86
2021/07/15 07:41:57;;;;;;;23.10;8.57;;;;;;;17.79;81.70;101688.00;6104947;23;20006;-86
2021/07/15 07:44:22;;;;;;;23.15;8.05;;;;;;;17.99;81.21;101700.47;6129722;23;20017;-82
2021/07/15 07:46:48;;;;;;;20.05;8.63;;;;;;;18.06;80.77;101704.91;6129445;23;20468;-81
2021/07/15 07:49:13;;;;;;;25.77;8.10;;;;;;;18.13;80.83;101713.78;6129072;23;20006;-81
2021/07/15 07:51:39;;;;;;;22.52;8.15;;;;;;;18.20;80.45;101703.13;6124661;23;20485;-79
2021/07/15 07:54:05;;;;;;;24.23;8.32;;;;;;;18.31;79.76;101704.84;6119968;23;20009;-77
2021/07/15 07:56:32;;;;;;;28.50;8.38;;;;;;;18.29;79.25;101699.53;6123623;23;19998;-80
2021/07/15 07:59:00;;;;;;;24.25;7.53;;;;;;;18.38;79.33;101701.31;6126961;23;20016;-84
2021/07/15 08:01:28;;;;;;;26.98;8.07;;;;;;;18.56;78.90;101697.72;6127768;23;20302;-86
2021/07/15 08:04:14;;;;;;;20.27;7.95;;;;;;;18.50;78.22;101700.38;6103986;23;20068;-80
2021/07/15 08:06:41;;;;;;;19.70;9.10;;;;;;;18.44;78.91;101709.28;6128092;23;20006;-77
2021/07/15 08:09:31;;;;;;;23.70;8.18;;;;;;;18.49;78.97;101712.81;6128626;23;20425;-82
2021/07/15 08:11:58;;;;;;;28.08;8.73;;;;;;;18.58;78.29;101717.22;6121609;23;20516;-86
2021/07/15 08:14:23;;;;;;;24.70;8.93;;;;;;;18.61;78.06;101714.56;6127617;23;20188;-78
2021/07/15 08:16:53;;;;;;;19.95;8.27;;;;;;;18.63;78.15;101731.44;6127234;23;20097;-80
2021/07/15 08:19:20;;;;;;;24.65;9.43;;;;;;;18.65;77.92;101731.44;6125377;23;20460;-78
2021/07/15 08:21:45;;;;;;;19.85;9.02;;;;;;;18.60;78.47;101735.88;6126617;23;20006;-89
2021/07/15 08:24:11;;;;;;;17.48;8.82;;;;;;;18.68;77.91;101728.78;6128520;23;20005;-79
2021/07/15 08:26:36;;;;;;;23.05;9.85;;;;;;;18.78;77.57;101730.50;6126692;23;20004;-83
2021/07/15 08:29:03;;;;;;;21.08;8.63;;;;;;;18.79;77.89;101731.41;6128693;23;20006;-83
2021/07/15 08:31:28;;;;;;;25.38;9.38;;;;;;;18.81;77.58;101725.16;6127115;23;20010;-78
2021/07/15 08:33:53;;;;;;;20.50;7.93;;;;;;;18.76;77.45;101734.97;6127382;23;20005;-85
2021/07/15 08:36:20;;;;;;;23.30;8.20;;;;;;;18.73;77.86;101734.97;6126751;23;20322;-86
2021/07/15 08:38:46;;;;;;;22.45;7.47;;;;;;;18.65;78.15;101728.75;6126296;23;20080;-82
2021/07/15 08:41:12;;;;;;;22.45;8.23;;;;;;;18.62;78.29;101742.13;6126470;23;20377;-85
2021/07/15 08:43:38;;;;;;;20.58;8.70;;;;;;;18.52;77.91;101744.78;6097590;23;20010;-78
2021/07/15 08:46:24;;;;;;;17.17;7.93;;;;;;;18.68;77.37;101729.66;6127259;23;20078;-78
2021/07/15 08:48:53;;;;;;;23.25;8.52;;;;;;;18.79;76.51;101731.41;6128646;23;20014;-81
2021/07/15 08:51:39;;;;;;;20.92;8.25;;;;;;;19.05;76.13;101747.34;6126092;23;20010;-81
2021/07/15 08:54:07;;;;;;;22.67;7.97;;;;;;;19.00;76.10;101757.13;6120187;23;20037;-79
2021/07/15 08:56:36;;;;;;;29.13;8.25;;;;;;;19.08;75.69;101749.97;6096833;23;20089;-80
2021/07/15 08:59:03;;;;;;;24.00;8.27;;;;;;;18.93;75.85;101758.94;6101277;23;20037;-83
2021/07/15 09:01:34;;;;;;;19.95;8.60;;;;;;;18.93;76.03;101764.25;6127222;23;20018;-83
2021/07/15 09:04:17;;;;;;;20.88;7.80;;;;;;;19.03;76.41;101773.13;6123377;23;20006;-83
2021/07/15 09:06:44;;;;;;;20.67;7.85;;;;;;;18.68;77.05;101771.44;6127143;23;20198;-81
2021/07/15 09:09:16;;;;;;;22.92;8.52;;;;;;;18.62;77.16;101768.78;6127458;23;20323;-84
2021/07/15 09:11:52;;;;;;;20.05;8.13;;;;;;;18.58;77.62;101775.00;6128307;23;20094;-82
2021/07/15 09:14:22;;;;;;;19.25;8.02;;;;;;;18.66;77.49;101774.06;6126964;23;20089;-82
2021/07/15 09:17:10;;;;;;;19.90;9.43;;;;;;;18.73;78.17;101780.28;6096699;23;20014;-81
2021/07/15 09:19:57;;;;;;;23.73;8.18;;;;;;;18.66;77.35;101778.53;6128639;23;20114;-87
2021/07/15 09:22:23;;;;;;;28.80;8.95;;;;;;;18.80;77.73;101782.06;6124331;23;20010;-89
2021/07/15 09:24:50;;;;;;;21.42;8.27;;;;;;;18.83;77.93;101791.84;6127479;23;20020;-81
2021/07/15 09:27:46;;;;;;;20.52;8.65;;;;;;;19.02;76.58;101787.38;6126513;23;20006;-81
2021/07/15 09:30:25;;;;;;;26.35;8.45;;;;;;;19.15;76.15;101794.44;6126949;23;20092;-81
2021/07/15 09:33:13;;;;;;;19.52;7.95;;;;;;;19.04;76.28;101793.56;6127699;23;20060;-82
2021/07/15 09:36:21;;;;;;;29.55;7.90;;;;;;;19.10;75.88;101787.31;6125392;23;20380;-81
2021/07/15 09:39:15;;;;;;;19.55;8.25;;;;;;;19.24;74.71;101779.28;6125004;23;20010;-84
2021/07/15 09:42:03;;;;;;;20.90;7.78;;;;;;;19.47;73.92;101782.72;6128906;23;20013;-83
2021/07/15 09:44:29;;;;;;;19.17;7.75;;;;;;;19.72;73.85;101790.56;6128157;23;20009;-80
2021/07/15 09:46:54;;;;;;;23.92;8.73;;;;;;;19.84;75.18;101785.19;6127260;23;20022;-85
2021/07/15 09:49:48;;;;;;;17.75;7.00;;;;;;;19.87;72.84;101789.63;6125021;23;20441;-82
2021/07/15 09:52:22;;;;;;;24.30;9.57;;;;;;;19.59;73.37;101796.88;6126281;23;20016;-83
2021/07/15 09:54:47;;;;;;;22.55;8.18;;;;;;;19.52;74.13;101809.38;6125433;23;20025;-82
2021/07/15 09:57:25;;;;;;;22.05;8.77;;;;;;;19.14;74.82;101803.34;6126662;23;20358;-78
2021/07/15 09:59:51;;;;;;;16.88;8.38;;;;;;;19.09;75.75;101802.44;6126872;23;20028;-79
2021/07/15 10:02:50;;;;;;;23.05;8.60;;;;;;;19.09;75.83;101806.91;6126439;23;20437;-80
2021/07/15 10:05:15;;;;;;;18.95;8.68;;;;;;;19.35;75.29;101807.69;6128765;23;20070;-80
2021/07/15 10:08:08;;;;;;;16.05;7.90;;;;;;;19.25;75.06;101805.06;6129834;23;20017;-84
2021/07/15 10:10:34;;;;;;;15.43;8.23;;;;;;;19.12;75.28;101820.25;6124414;23;20006;-81
2021/07/15 10:13:17;;;;;;;22.05;10.20;;;;;;;18.95;74.90;101822.94;6125260;23;20010;-82
2021/07/15 10:15:44;;;;;;;25.50;9.60;;;;;;;18.97;75.51;101813.16;6125852;23;20436;-82
2021/07/15 10:18:10;;;;;;;18.42;8.73;;;;;;;18.92;75.86;101817.63;6125790;23;20437;-81
2021/07/15 10:20:56;;;;;;;21.85;8.73;;;;;;;18.97;76.18;101821.16;6124719;23;20033;-87
2021/07/15 10:23:47;;;;;;;24.45;9.00;;;;;;;19.09;75.89;101815.78;6126736;23;20077;-82
2021/07/15 10:26:16;;;;;;;21.75;9.18;;;;;;;19.05;76.42;101814.03;6119953;23;20017;-79
2021/07/15 10:28:50;;;;;;;21.27;9.23;;;;;;;18.91;75.64;101822.06;6123496;23;20001;-84
2021/07/15 10:31:38;;;;;;;20.23;8.50;;;;;;;18.90;76.35;101812.28;6125063;23;20514;-83
2021/07/15 10:34:04;;;;;;;22.92;8.65;;;;;;;19.00;75.94;101814.06;6126897;23;20017;-78
2021/07/15 10:36:54;;;;;;;24.92;8.90;;;;;;;19.06;75.56;101815.81;6118591;23;20002;-80
2021/07/15 10:39:22;;;;;;;18.65;9.07;;;;;;;19.12;75.36;101815.78;6124537;23;20081;-83
2021/07/15 10:42:08;;;;;;;23.15;10.10;;;;;;;19.09;75.24;101818.47;6124651;23;20006;-85
2021/07/15 10:44:34;;;;;;;21.70;9.38;;;;;;;18.97;75.29;101827.38;6125631;23;20088;-82
2021/07/15 10:47:20;;;;;;;19.15;8.25;;;;;;;19.15;76.21;101826.47;6124575;23;20017;-90
2021/07/15 10:49:46;;;;;;;24.02;8.25;;;;;;;19.11;75.34;101829.13;6127117;23;20071;-87
2021/07/15 10:52:32;;;;;;;24.80;9.07;;;;;;;19.11;75.74;101819.31;6125733;23;20010;-80
2021/07/15 10:55:00;;;;;;;19.48;8.68;;;;;;;19.26;76.54;101823.75;6126614;23;20049;-80
2021/07/15 10:57:26;;;;;;;21.48;7.85;;;;;;;19.30;75.43;101819.28;6127152;23;20133;-80
2021/07/15 11:00:21;;;;;;;23.95;8.60;;;;;;;19.38;74.55;101821.03;6125316;23;20010;-85
2021/07/15 11:03:29;;;;;;;21.25;8.55;;;;;;;19.65;74.57;101827.09;6127805;23;20037;-83
2021/07/15 11:06:32;;;;;;;18.65;7.35;;;;;;;19.68;73.42;101816.44;6125588;23;20006;-80
2021/07/15 11:09:00;;;;;;;18.00;7.93;;;;;;;19.91;73.35;101811.88;6127490;23;20037;-80
2021/07/15 11:11:42;;;;;;;21.45;8.23;;;;;;;20.03;73.00;101817.13;6126979;23;20016;-76
2021/07/15 11:14:53;;;;;;;21.83;7.60;;;;;;;20.13;72.45;101823.28;6127965;23;20057;-87
2021/07/15 11:18:08;;;;;;;20.40;8.13;;;;;;;19.96;71.66;101823.41;6127396;23;20041;-86
2021/07/15 11:20:34;;;;;;;;;;;;;;;19.77;72.06;101830.63;6101567;23;20017;-81
2021/07/15 11:23:20;;;;;;;16.00;8.55;;;;;;;19.78;73.75;101827.94;6127960;23;19908;-90
2021/07/15 11:25:45;;;;;;;23.55;8.90;;;;;;;19.61;72.89;101835.16;6127820;23;20061;-81
2021/07/15 11:28:12;;;;;;;18.83;7.85;;;;;;;19.59;73.18;101837.84;6126019;23;20116;-83
2021/07/15 11:30:37;;;;;;;16.23;8.40;;;;;;;19.75;73.22;101829.72;6125141;23;20032;-84
2021/07/15 11:33:18;;;;;;;13.40;7.72;;;;;;;19.93;72.58;101836.78;6128373;23;20382;-85
2021/07/15 11:36:05;;;;;;;16.20;7.97;;;;;;;19.83;72.81;101842.19;6127536;23;20012;-85
2021/07/15 11:38:56;;;;;;;18.27;8.55;;;;;;;19.87;72.97;101843.03;6128516;23;20022;-82
2021/07/15 11:41:22;;;;;;;16.25;7.03;;;;;;;20.02;72.24;101836.72;6126105;23;20013;-85
2021/07/15 11:43:47;;;;;;;16.90;7.32;;;;;;;20.02;72.57;101836.72;6127258;23;20006;-87
2021/07/15 11:46:18;;;;;;;19.83;7.57;;;;;;;20.25;71.61;101846.34;6126758;23;20402;-77
2021/07/15 11:49:35;;;;;;;16.40;6.93;;;;;;;20.05;71.92;101842.06;6128566;23;20021;-84
2021/07/15 11:52:02;;;;;;;18.25;7.80;;;;;;;20.11;72.22;101839.31;6128167;23;20065;-80
2021/07/15 11:54:53;;;;;;;14.85;6.90;;;;;;;19.87;72.06;101843.03;6128358;23;20013;-82
2021/07/15 11:57:18;;;;;;;16.48;7.93;;;;;;;19.82;72.71;101856.44;6127502;23;20060;-86
2021/07/15 12:00:05;;;;;;;16.02;7.03;;;;;;;20.06;72.44;101857.16;6101082;23;20377;-80
2021/07/15 12:02:39;;;;;;;20.40;6.53;;;;;;;20.14;71.45;101860.66;6127812;23;20381;-83
2021/07/15 12:05:07;;;;;;;;;;;;;;;20.28;72.24;101863.25;6129040;23;20002;-81
2021/07/15 12:07:44;;;;;;;14.65;6.53;;;;;;;20.41;70.60;101864.03;6128831;23;19909;-79
2021/07/15 12:10:21;;;;;;;14.52;6.38;;;;;;;20.38;70.78;101862.28;6127079;23;20692;-79
2021/07/15 12:12:48;;;;;;;20.75;6.53;;;;;;;20.28;70.76;101865.03;6128536;23;20013;-85
2021/07/15 12:15:18;;;;;;;21.52;6.43;;;;;;;20.20;70.24;101874.00;6129377;23;20014;-88
2021/07/15 12:18:17;;;;;;;13.90;5.95;;;;;;;19.97;70.87;101868.81;6130270;23;20014;-86
2021/07/15 12:20:52;;;;;;;12.30;6.15;;;;;;;20.00;71.72;101881.25;6126529;23;20338;-79
2021/07/15 12:23:46;;;;;;;16.02;6.13;;;;;;;19.68;72.00;101883.19;6128629;23;20013;-80
2021/07/15 12:26:37;;;;;;;14.60;7.68;;;;;;;19.67;72.95;101883.19;6129279;23;20006;-86
2021/07/15 12:29:28;;;;;;;16.58;5.40;;;;;;;19.70;72.25;101889.38;6131071;23;20024;-81
2021/07/15 12:31:59;;;;;;;14.98;6.30;;;;;;;19.59;72.25;101880.56;6129559;23;20029;-85
2021/07/15 12:34:27;;;;;;;13.70;6.72;;;;;;;19.50;73.16;101878.78;6130214;23;20026;-80
2021/07/15 12:36:52;;;;;;;18.27;7.50;;;;;;;19.68;72.56;101880.50;6130947;23;20017;-82
2021/07/15 12:39:20;;;;;;;12.13;6.05;;;;;;;19.74;72.49;101879.59;6129501;23;20333;-77
2021/07/15 12:41:46;;;;;;;19.38;6.43;;;;;;;19.88;71.93;101882.22;6129020;23;20010;-83
2021/07/15 12:44:14;;;;;;;17.83;6.50;;;;;;;19.70;73.04;101877.84;6128583;23;20009;-79